createdAt,value
2023-05-12T00:01:15.330Z,3.57
2023-05-12T00:06:18.952Z,2.73
2023-05-12T00:11:23.592Z,2.80
2023-05-12T00:16:26.790Z,2.40
2023-05-12T00:21:29.880Z,3.40
2023-05-12T00:26:34.257Z,3.00
2023-05-12T00:31:37.404Z,2.93
2023-05-12T00:36:41.342Z,3.30
2023-05-12T00:41:47.908Z,3.60
2023-05-12T00:46:51.859Z,3.90
2023-05-12T00:51:55.717Z,3.77
2023-05-12T00:57:01.938Z,3.97
2023-05-12T01:02:07.271Z,3.40
2023-05-12T01:07:16.849Z,3.90
2023-05-12T01:12:21.771Z,4.40
2023-05-12T01:17:30.757Z,4.10
2023-05-12T01:22:35.291Z,4.40
2023-05-12T01:27:41.645Z,5.00
2023-05-12T01:32:45.856Z,4.70
2023-05-12T01:37:50.619Z,4.30
2023-05-12T01:42:56.300Z,4.90
2023-05-12T01:48:00.499Z,4.63
2023-05-12T01:53:03.995Z,4.70
2023-05-12T01:58:09.595Z,4.57
2023-05-12T02:03:13.130Z,4.53
2023-05-12T02:08:16.427Z,4.37
2023-05-12T02:13:21.395Z,3.90
2023-05-12T02:18:24.586Z,4.27
2023-05-12T02:23:28.401Z,4.40
2023-05-12T02:28:33.468Z,5.13
2023-05-12T02:33:36.843Z,4.77
2023-05-12T02:38:40.460Z,4.87
2023-05-12T02:43:45.534Z,4.83
2023-05-12T02:48:48.622Z,5.53
2023-05-12T02:53:52.095Z,5.30
2023-05-12T02:58:56.542Z,5.90
2023-05-12T03:03:59.753Z,6.00
2023-05-12T03:09:02.878Z,5.70
2023-05-12T03:14:07.619Z,5.50
2023-05-12T03:19:10.996Z,4.90
2023-05-12T03:24:14.169Z,5.50
2023-05-12T03:29:19.669Z,5.00
2023-05-12T03:34:22.969Z,5.10
2023-05-12T03:39:26.554Z,5.00
2023-05-12T03:44:31.659Z,4.70
2023-05-12T03:49:34.655Z,4.97
2023-05-12T03:54:38.068Z,4.47
2023-05-12T03:59:42.527Z,4.20
2023-05-12T04:04:45.517Z,4.67
2023-05-12T04:09:48.489Z,4.67
2023-05-12T04:14:52.952Z,4.73
2023-05-12T04:19:56.016Z,5.43
2023-05-12T04:24:59.330Z,6.13
2023-05-12T04:30:04.191Z,7.03
2023-05-12T04:35:11.652Z,8.53
2023-05-12T04:40:15.293Z,8.87
2023-05-12T04:45:20.385Z,9.87
2023-05-12T04:50:23.803Z,11.17
2023-05-12T04:55:27.018Z,10.37
2023-05-12T05:00:31.624Z,13.40
2023-05-12T05:05:34.676Z,12.43
2023-05-12T05:10:38.395Z,13.03
2023-05-12T05:15:50.932Z,13.33
2023-05-12T05:20:58.549Z,13.27
2023-05-12T05:26:02.532Z,14.20
2023-05-12T05:31:07.669Z,15.20
2023-05-12T05:36:11.575Z,14.77
2023-05-12T05:41:14.808Z,15.90
2023-05-12T05:46:19.411Z,15.00
2023-05-12T05:51:22.485Z,14.57
2023-05-12T05:56:25.604Z,14.63
2023-05-12T06:01:31.217Z,15.67
2023-05-12T06:06:34.705Z,15.70
2023-05-12T06:11:38.120Z,15.77
2023-05-12T06:16:42.742Z,15.80
2023-05-12T06:21:45.642Z,16.63
2023-05-12T06:26:49.115Z,16.70
2023-05-12T06:31:53.876Z,15.43
2023-05-12T06:36:57.118Z,15.07
2023-05-12T06:42:00.778Z,15.33
2023-05-12T06:47:14.208Z,15.50
2023-05-12T06:52:17.521Z,15.10
2023-05-12T06:57:20.737Z,14.13
2023-05-12T07:02:25.090Z,14.90
2023-05-12T07:07:28.180Z,14.47
2023-05-12T07:12:32.231Z,15.53
2023-05-12T07:17:36.759Z,14.80
2023-05-12T07:22:39.867Z,13.97
2023-05-12T07:27:42.969Z,14.87
2023-05-12T07:32:47.466Z,13.90
2023-05-12T07:37:51.068Z,14.88
2023-05-12T07:42:54.149Z,13.65
2023-05-12T07:47:58.601Z,13.73
2023-05-12T07:53:01.853Z,12.05
2023-05-12T07:58:05.027Z,13.00
2023-05-12T08:03:09.494Z,13.00
2023-05-12T08:08:16.785Z,12.70
2023-05-12T08:13:19.880Z,11.20
2023-05-12T08:18:24.362Z,9.55
2023-05-12T08:23:27.477Z,9.23
2023-05-12T08:28:31.178Z,8.55
2023-05-12T08:33:37.028Z,8.00
2023-05-12T08:38:40.471Z,7.57
2023-05-12T08:43:45.889Z,6.72
2023-05-12T08:48:53.397Z,6.95
2023-05-12T08:53:58.091Z,6.38
2023-05-12T08:59:02.430Z,7.03
2023-05-12T09:04:07.500Z,6.25
2023-05-12T09:09:11.014Z,5.82
2023-05-12T09:14:19.157Z,5.32
2023-05-12T09:19:24.102Z,4.82
2023-05-12T09:24:36.656Z,4.72
2023-05-12T09:29:59.252Z,4.07
2023-05-12T09:35:11.122Z,3.90
2023-05-12T09:40:14.869Z,4.55
2023-05-12T09:45:18.201Z,3.20
2023-05-12T09:50:23.812Z,3.05
2023-05-12T09:55:27.225Z,2.35
2023-05-12T10:00:41.316Z,2.85
2023-05-12T10:05:54.558Z,3.00
2023-05-12T10:11:03.584Z,3.20
2023-05-12T10:16:11.459Z,3.15
2023-05-12T10:21:19.638Z,4.05
2023-05-12T10:26:23.585Z,3.15
2023-05-12T10:31:29.239Z,3.03
2023-05-12T10:36:45.073Z,2.70
2023-05-12T10:41:48.197Z,2.53
2023-05-12T10:46:58.695Z,2.45
2023-05-12T10:52:03.225Z,2.03
2023-05-12T10:57:17.876Z,2.00
2023-05-12T11:02:29.162Z,2.42
2023-05-12T11:07:36.701Z,2.00
2023-05-12T11:12:40.635Z,2.28
2023-05-12T11:17:43.743Z,1.90
2023-05-12T11:22:48.571Z,2.17
2023-05-12T11:27:51.897Z,2.25
2023-05-12T11:33:04.440Z,2.13
2023-05-12T11:38:18.752Z,1.83
2023-05-12T11:43:22.729Z,1.92
2023-05-12T11:48:34.783Z,2.40
2023-05-12T11:53:42.818Z,2.00
2023-05-12T11:58:54.902Z,2.20
2023-05-12T12:03:58.194Z,1.98
2023-05-12T12:09:02.864Z,1.92
2023-05-12T12:14:06.193Z,1.63
2023-05-12T12:19:09.292Z,2.10
2023-05-12T12:24:14.236Z,2.30
2023-05-12T12:29:17.800Z,2.30
2023-05-12T12:34:20.887Z,2.17
2023-05-12T12:39:25.736Z,2.13
2023-05-12T12:44:29.158Z,1.80
2023-05-12T12:49:32.425Z,2.38
2023-05-12T12:54:37.520Z,2.00
2023-05-12T12:59:40.773Z,1.73
2023-05-12T13:04:43.896Z,1.67
2023-05-12T13:09:48.552Z,1.75
2023-05-12T13:14:51.557Z,1.83
2023-05-12T13:19:54.694Z,1.98
2023-05-12T13:24:59.392Z,1.77
2023-05-12T13:30:04.446Z,1.80
2023-05-12T13:35:09.011Z,1.65
2023-05-12T13:40:14.570Z,1.70
2023-05-12T13:45:19.420Z,1.70
2023-05-12T13:50:23.059Z,1.65
2023-05-12T13:55:27.654Z,1.98
2023-05-12T14:00:31.256Z,1.92
2023-05-12T14:05:34.850Z,2.22
2023-05-12T14:10:40.307Z,1.85
2023-05-12T14:15:49.304Z,1.80
2023-05-12T14:20:53.399Z,1.80
2023-05-12T14:25:58.169Z,1.60
2023-05-12T14:31:02.802Z,1.88
2023-05-12T14:36:08.430Z,1.45
2023-05-12T14:41:13.730Z,1.65
2023-05-12T14:46:16.954Z,1.67
2023-05-12T14:51:19.997Z,1.70
2023-05-12T14:56:25.334Z,2.00
2023-05-12T15:01:29.565Z,2.00
2023-05-12T15:06:34.069Z,1.52
2023-05-12T15:11:38.372Z,1.90
2023-05-12T15:16:41.776Z,1.75
2023-05-12T15:21:45.030Z,1.70
2023-05-12T15:26:49.872Z,1.92
2023-05-12T15:31:53.079Z,1.75
2023-05-12T15:36:56.287Z,2.10
2023-05-12T15:42:01.237Z,1.80
2023-05-12T15:47:05.200Z,2.00
2023-05-12T15:52:11.521Z,1.92
2023-05-12T15:57:16.936Z,2.08
2023-05-12T16:02:20.182Z,2.15
2023-05-12T16:07:23.585Z,2.00
2023-05-12T16:12:33.478Z,2.00
2023-05-12T16:17:37.967Z,2.22
2023-05-12T16:22:41.799Z,2.38
2023-05-12T16:27:46.352Z,2.17
2023-05-12T16:32:49.742Z,2.30
2023-05-12T16:37:53.812Z,2.10
2023-05-12T16:42:58.287Z,2.35
2023-05-12T16:48:02.741Z,2.47
2023-05-12T16:53:06.342Z,2.55
2023-05-12T16:58:11.155Z,3.15
2023-05-12T17:03:14.301Z,2.80
2023-05-12T17:08:19.002Z,3.15
2023-05-12T17:13:23.774Z,3.90
2023-05-12T17:18:27.144Z,3.40
2023-05-12T17:23:30.398Z,3.60
2023-05-12T17:28:35.219Z,3.33
2023-05-12T17:33:38.393Z,3.78
2023-05-12T17:38:42.105Z,3.42
2023-05-12T17:43:46.608Z,4.40
2023-05-12T17:48:49.804Z,3.72
2023-05-12T17:53:52.912Z,4.05
2023-05-12T17:58:57.436Z,3.90
2023-05-12T18:04:00.740Z,3.28
2023-05-12T18:09:03.911Z,3.28
2023-05-12T18:14:08.687Z,3.28
2023-05-12T18:19:11.859Z,3.50
2023-05-12T18:24:15.287Z,3.15
2023-05-12T18:29:19.687Z,4.70
2023-05-12T18:34:22.720Z,4.25
2023-05-12T18:39:26.154Z,3.97
2023-05-12T18:44:30.566Z,6.13
2023-05-12T18:49:33.631Z,4.68
2023-05-12T18:54:37.052Z,4.82
2023-05-12T18:59:41.918Z,4.15
2023-05-12T19:04:45.166Z,3.97
2023-05-12T19:09:48.431Z,4.32
2023-05-12T19:14:53.262Z,4.60
2023-05-12T19:19:57.684Z,5.03
2023-05-12T19:25:00.911Z,4.53
2023-05-12T19:30:06.754Z,5.15
2023-05-12T19:35:11.778Z,4.90
2023-05-12T19:40:15.011Z,5.07
2023-05-12T19:45:19.539Z,5.35
2023-05-12T19:50:22.876Z,5.07
2023-05-12T19:55:26.253Z,5.07
2023-05-12T20:00:30.675Z,5.20
2023-05-12T20:05:36.634Z,5.65
2023-05-12T20:10:41.011Z,6.00
2023-05-12T20:15:45.940Z,5.90
2023-05-12T20:20:49.101Z,5.47
2023-05-12T20:25:53.333Z,6.07
2023-05-12T20:30:57.837Z,6.60
2023-05-12T20:36:01.002Z,6.38
2023-05-12T20:41:07.464Z,7.32
2023-05-12T20:46:12.540Z,7.22
2023-05-12T20:51:15.832Z,7.55
2023-05-12T20:56:18.953Z,8.30
2023-05-12T21:01:23.437Z,8.52
2023-05-12T21:06:26.766Z,8.50
2023-05-12T21:11:29.747Z,9.10
2023-05-12T21:16:34.265Z,8.63
2023-05-12T21:21:37.410Z,8.93
2023-05-12T21:26:40.520Z,9.40
2023-05-12T21:31:45.189Z,9.90
2023-05-12T21:36:48.775Z,9.25
2023-05-12T21:41:51.904Z,9.55
2023-05-12T21:46:58.610Z,9.07
2023-05-12T21:52:01.730Z,9.27
2023-05-12T21:57:04.988Z,9.15
2023-05-12T22:02:09.549Z,8.85
2023-05-12T22:07:12.977Z,9.07
2023-05-12T22:12:18.482Z,9.05
2023-05-12T22:17:22.843Z,8.63
2023-05-12T22:22:25.841Z,7.90
2023-05-12T22:27:28.833Z,8.03
2023-05-12T22:32:33.518Z,7.97
2023-05-12T22:37:36.751Z,8.33
2023-05-12T22:42:40.289Z,7.50
2023-05-12T22:47:44.748Z,7.43
2023-05-12T22:52:48.008Z,7.03
2023-05-12T22:57:51.325Z,8.43
2023-05-12T23:02:55.822Z,7.43
2023-05-12T23:07:58.826Z,7.10
2023-05-12T23:13:02.058Z,7.53
2023-05-12T23:18:06.440Z,7.00
2023-05-12T23:23:09.586Z,6.70
2023-05-12T23:28:12.553Z,6.67
2023-05-12T23:33:17.183Z,6.83
2023-05-12T23:38:20.232Z,6.83
2023-05-12T23:43:23.254Z,6.93
2023-05-12T23:48:28.561Z,6.60
2023-05-12T23:53:31.677Z,6.50
2023-05-12T23:58:35.563Z,6.30
